Time;durP1;ratioP1;P1;durP2;ratioP2;P2;SDS_P1;SDS_P2;PMS_P1;PMS_P2;Temp;Humidity;BMP_temperature;BMP_pressure;BME280_temperature;BME280_humidity;BME280_pressure;Samples;Min_cycle;Max_cycle;Signal;HPM_P1;HPM_P2
2021/05/26 00:00:44;;;;;;;7.33;4.20;;;;;;;8.77;100.00;101367.37;1893897;75;26286;-77
2021/05/26 00:03:14;;;;;;;7.00;4.47;;;;;;;8.63;100.00;101365.58;1893458;75;26701;-75
2021/05/26 00:05:44;;;;;;;6.53;4.13;;;;;;;8.59;100.00;101364.43;1902614;75;26189;-77
2021/05/26 00:08:14;;;;;;;6.00;4.30;;;;;;;8.61;100.00;101358.61;1893063;75;26634;-75
2021/05/26 00:10:44;;;;;;;5.97;3.80;;;;;;;9.01;100.00;101361.81;1893313;73;26245;-77
2021/05/26 00:13:13;;;;;;;5.83;3.63;;;;;;;9.27;100.00;101356.50;1888273;76;26403;-77
2021/05/26 00:15:44;;;;;;;6.23;4.47;;;;;;;9.35;100.00;101352.70;1889768;75;26213;-77
2021/05/26 00:18:15;;;;;;;8.33;3.90;;;;;;;9.35;100.00;101358.23;1904904;75;26295;-77
2021/05/26 00:20:46;;;;;;;8.30;4.90;;;;;;;9.25;100.00;101360.91;1897533;75;26806;-77
2021/05/26 00:23:16;;;;;;;7.03;4.97;;;;;;;9.36;100.00;101353.53;1889445;76;26225;-75
2021/05/26 00:25:46;;;;;;;7.60;4.67;;;;;;;9.42;100.00;101356.07;1894779;75;26706;-75
2021/05/26 00:28:16;;;;;;;7.40;4.20;;;;;;;9.41;100.00;101361.90;1904930;75;26684;-75
2021/05/26 00:30:48;;;;;;;6.87;4.07;;;;;;;9.22;100.00;101354.52;1892784;75;26278;-77
2021/05/26 00:33:19;;;;;;;7.87;4.60;;;;;;;9.27;100.00;101362.89;1898013;75;26363;-77
2021/05/26 00:35:50;;;;;;;6.47;4.47;;;;;;;9.40;100.00;101357.45;1904922;75;26282;-75
2021/05/26 00:38:20;;;;;;;6.83;4.10;;;;;;;9.36;100.00;101350.77;1904896;75;26786;-76
2021/05/26 00:40:50;;;;;;;7.73;4.50;;;;;;;9.40;100.00;101361.61;1898922;75;26209;-75
2021/05/26 00:43:20;;;;;;;6.23;3.97;;;;;;;9.38;100.00;101356.86;1897094;75;26683;-75
2021/05/26 00:45:50;;;;;;;8.00;4.70;;;;;;;9.32;100.00;101354.63;1904894;75;26432;-75
2021/05/26 00:48:20;;;;;;;6.27;4.37;;;;;;;9.32;100.00;101356.55;1904860;75;26620;-77
2021/05/26 00:50:50;;;;;;;4.73;4.00;;;;;;;9.31;100.00;101356.26;1904910;75;26194;-77
2021/05/26 00:53:20;;;;;;;6.57;4.27;;;;;;;9.32;100.00;101359.33;1905000;75;26237;-77
2021/05/26 00:55:50;;;;;;;7.10;4.30;;;;;;;9.32;100.00;101357.39;1904837;75;26691;-75
2021/05/26 00:58:21;;;;;;;5.60;4.30;;;;;;;9.34;100.00;101361.27;1905021;75;26204;-77
2021/05/26 01:00:51;;;;;;;5.47;4.03;;;;;;;9.37;100.00;101360.18;1904885;75;26491;-77
2021/05/26 01:03:21;;;;;;;8.27;4.23;;;;;;;9.37;100.00;101357.98;1896413;75;26704;-76
2021/05/26 01:05:50;;;;;;;7.10;4.80;;;;;;;9.37;100.00;101353.25;1899514;75;26204;-74
2021/05/26 01:08:20;;;;;;;7.07;3.97;;;;;;;9.38;100.00;101359.63;1898042;75;26201;-77
2021/05/26 01:10:50;;;;;;;6.67;4.00;;;;;;;9.37;100.00;101353.83;1895677;75;26647;-75
2021/05/26 01:13:22;;;;;;;9.37;4.63;;;;;;;9.36;100.00;101357.69;1894941;76;26680;-75
2021/05/26 01:15:51;;;;;;;7.13;4.07;;;;;;;9.30;100.00;101357.35;1894866;76;26251;-75
2021/05/26 01:18:29;;;;;;;10.63;5.53;;;;;;;9.30;100.00;101352.64;1894987;75;26838;-77
2021/05/26 01:21:02;;;;;;;6.53;3.83;;;;;;;9.28;100.00;101352.09;1895024;76;26226;-77
2021/05/26 01:23:32;;;;;;;6.53;4.20;;;;;;;9.29;100.00;101352.35;1894888;75;26292;-77
2021/05/26 01:26:04;;;;;;;10.67;4.43;;;;;;;9.28;100.00;101355.41;1894923;76;26212;-77
2021/05/26 01:28:36;;;;;;;8.17;4.13;;;;;;;9.24;100.00;101350.11;1894976;75;26719;-74
2021/05/26 01:31:06;;;;;;;5.70;4.87;;;;;;;9.22;100.00;101359.23;1894800;76;26331;-75
2021/05/26 01:33:36;;;;;;;9.00;4.67;;;;;;;9.23;100.00;101354.81;1894899;76;26665;-77
2021/05/26 01:36:07;;;;;;;7.00;4.00;;;;;;;9.19;100.00;101361.98;1895018;75;26659;-77
2021/05/26 01:38:37;;;;;;;6.23;4.43;;;;;;;9.17;100.00;101365.56;1894881;75;26284;-77
2021/05/26 01:41:07;;;;;;;7.50;5.03;;;;;;;9.14;100.00;101369.70;1895037;75;26282;-75
2021/05/26 01:43:37;;;;;;;8.67;5.00;;;;;;;9.10;100.00;101364.41;1894867;75;26759;-75
2021/05/26 01:46:07;;;;;;;7.57;4.37;;;;;;;9.10;100.00;101364.95;1894799;76;26277;-75
2021/05/26 01:48:36;;;;;;;7.20;4.30;;;;;;;9.02;100.00;101353.80;1894904;76;26676;-75
2021/05/26 01:51:07;;;;;;;7.13;4.53;;;;;;;9.05;100.00;101366.28;1894920;76;26225;-75
2021/05/26 01:53:36;;;;;;;7.83;4.73;;;;;;;9.08;100.00;101363.81;1894840;75;26205;-75
2021/05/26 01:56:15;;;;;;;7.07;4.43;;;;;;;9.04;100.00;101366.83;1894836;75;26282;-75
2021/05/26 01:58:45;;;;;;;7.00;4.17;;;;;;;9.05;100.00;101369.05;1894916;76;26276;-76
2021/05/26 02:01:16;;;;;;;6.40;4.23;;;;;;;9.07;100.00;101366.30;1894891;75;26200;-75
2021/05/26 02:03:47;;;;;;;6.33;4.40;;;;;;;9.02;100.00;101364.05;1894860;75;26811;-75
2021/05/26 02:06:18;;;;;;;8.50;4.63;;;;;;;9.04;100.00;101365.98;1894837;76;26193;-77
2021/05/26 02:08:51;;;;;;;10.40;4.60;;;;;;;9.02;100.00;101362.11;1894912;76;26747;-77
2021/05/26 02:14:10;;;;;;;6.30;4.53;;;;;;;8.95;100.00;101355.92;1904884;75;26644;-76
2021/05/26 02:16:40;;;;;;;6.43;4.23;;;;;;;8.92;100.00;101361.16;1904769;75;26204;-75
2021/05/26 02:19:10;;;;;;;6.77;4.50;;;;;;;8.88;100.00;101357.25;1904808;75;26302;-77
2021/05/26 02:21:40;;;;;;;7.30;4.63;;;;;;;8.86;100.00;101355.27;1904964;75;26303;-77
2021/05/26 02:24:11;;;;;;;6.03;3.70;;;;;;;8.87;100.00;101359.72;1904811;75;26235;-77
2021/05/26 02:26:41;;;;;;;6.90;4.13;;;;;;;8.91;100.00;101359.48;1904964;75;26319;-74
2021/05/26 02:29:11;;;;;;;5.80;3.67;;;;;;;8.93;100.00;101360.07;1904863;75;26206;-77
2021/05/26 02:31:41;;;;;;;9.40;3.87;;;;;;;8.94;100.00;101356.21;1904902;75;26321;-75
2021/05/26 02:34:10;;;;;;;5.13;3.20;;;;;;;8.90;100.00;101353.68;1904820;75;26617;-77
2021/05/26 02:36:40;;;;;;;6.50;3.40;;;;;;;8.86;100.00;101361.65;1904781;75;26216;-75
2021/05/26 02:39:11;;;;;;;5.23;3.17;;;;;;;8.77;100.00;101364.59;1904809;75;26197;-77
2021/05/26 02:41:43;;;;;;;6.70;3.60;;;;;;;8.64;100.00;101360.30;1904830;75;26270;-75
2021/05/26 02:44:13;;;;;;;8.27;3.83;;;;;;;8.56;100.00;101360.77;1904779;75;26241;-74
2021/05/26 02:46:42;;;;;;;4.67;2.97;;;;;;;8.43;100.00;101364.52;1904820;75;26249;-77
2021/05/26 02:49:13;;;;;;;5.63;3.37;;;;;;;8.51;100.00;101357.12;1905000;75;26360;-77
2021/05/26 02:51:43;;;;;;;5.57;3.50;;;;;;;8.50;100.00;101358.22;1904794;75;26276;-75
2021/05/26 02:54:13;;;;;;;5.97;3.00;;;;;;;8.50;100.00;101354.06;1904894;75;26382;-75
2021/05/26 02:56:43;;;;;;;3.97;3.00;;;;;;;8.33;100.00;101356.91;1904745;75;26710;-75
2021/05/26 02:59:12;;;;;;;5.10;3.53;;;;;;;8.43;100.00;101355.63;1904851;75;26313;-75
2021/05/26 03:01:42;;;;;;;8.33;3.20;;;;;;;8.32;100.00;101368.23;1904836;75;26201;-77
2021/05/26 03:04:12;;;;;;;5.70;3.23;;;;;;;8.17;100.00;101364.70;1904784;75;26267;-75
2021/05/26 03:06:42;;;;;;;6.50;3.20;;;;;;;8.23;100.00;101370.04;1904952;75;26241;-75
2021/05/26 03:09:12;;;;;;;8.40;3.10;;;;;;;8.23;100.00;101363.66;1904812;75;26193;-75
2021/05/26 03:11:41;;;;;;;4.87;3.20;;;;;;;8.23;100.00;101367.27;1898770;75;26299;-77
2021/05/26 03:14:11;;;;;;;5.27;3.03;;;;;;;8.32;100.00;101370.45;1891830;76;26214;-75
2021/05/26 03:16:42;;;;;;;9.37;3.60;;;;;;;8.34;100.00;101367.44;1891744;75;26204;-77
2021/05/26 03:19:12;;;;;;;7.13;2.87;;;;;;;8.37;100.00;101372.45;1891732;75;26768;-77
2021/05/26 03:21:42;;;;;;;5.37;2.53;;;;;;;8.39;100.00;101361.94;1891917;75;26759;-76
2021/05/26 03:24:13;;;;;;;4.47;2.50;;;;;;;8.46;100.00;101363.98;1891717;76;26197;-77
2021/05/26 03:26:44;;;;;;;4.40;2.50;;;;;;;8.43;100.00;101363.94;1891829;75;26794;-75
2021/05/26 03:29:15;;;;;;;7.70;2.60;;;;;;;8.54;100.00;101353.84;1891703;75;26297;-75
2021/05/26 03:31:48;;;;;;;5.03;3.00;;;;;;;8.58;100.00;101355.83;1891775;76;26344;-75
2021/05/26 03:34:18;;;;;;;5.13;2.20;;;;;;;8.62;100.00;101356.14;1891690;76;26709;-75
2021/05/26 03:36:47;;;;;;;6.50;2.30;;;;;;;8.60;100.00;101350.04;1891625;76;26204;-75
2021/05/26 03:39:17;;;;;;;5.13;2.20;;;;;;;8.62;100.00;101347.83;1891742;75;26640;-76
2021/05/26 03:41:47;;;;;;;8.70;3.03;;;;;;;8.56;100.00;101344.16;1891805;75;26342;-75
2021/05/26 03:44:18;;;;;;;3.47;2.13;;;;;;;8.55;100.00;101348.05;1891702;76;26188;-75
2021/05/26 03:47:05;;;;;;;4.73;1.97;;;;;;;8.60;100.00;101355.58;1832851;78;33338;-77
2021/05/26 03:49:34;;;;;;;5.67;2.20;;;;;;;8.57;100.00;101342.23;1831570;78;26300;-77
2021/05/26 03:52:04;;;;;;;4.03;2.43;;;;;;;8.41;100.00;101355.08;1832609;78;26783;-77
2021/05/26 03:54:35;;;;;;;4.10;2.10;;;;;;;8.53;100.00;101350.22;1831435;78;26242;-77
2021/05/26 03:57:06;;;;;;;6.30;2.00;;;;;;;8.56;100.00;101346.92;1832291;78;26788;-76
2021/05/26 03:59:36;;;;;;;5.30;2.20;;;;;;;8.50;100.00;101349.91;1832247;78;26793;-75
2021/05/26 04:02:06;;;;;;;3.67;2.40;;;;;;;8.37;100.00;101355.84;1797928;77;930747;-77
2021/05/26 04:04:38;;;;;;;4.03;1.97;;;;;;;8.23;100.00;101357.59;1800805;79;26249;-77
2021/05/26 04:07:08;;;;;;;3.93;2.17;;;;;;;8.15;100.00;101351.66;1801715;79;26316;-77
2021/05/26 04:09:38;;;;;;;5.40;2.77;;;;;;;8.04;100.00;101354.02;1800865;79;26681;-76
2021/05/26 04:12:10;;;;;;;4.50;2.37;;;;;;;8.00;100.00;101367.50;1799598;79;26294;-74
2021/05/26 04:14:40;;;;;;;4.80;2.47;;;;;;;8.01;100.00;101366.41;1796717;80;26698;-74
2021/05/26 04:17:09;;;;;;;5.47;2.30;;;;;;;8.03;100.00;101369.77;1796780;80;26251;-74
2021/05/26 04:19:39;;;;;;;6.70;2.80;;;;;;;8.12;100.00;101369.63;1871519;76;26651;-74
2021/05/26 04:22:09;;;;;;;8.03;2.43;;;;;;;8.18;100.00;101371.34;1872675;76;26254;-76
2021/05/26 04:24:39;;;;;;;6.03;2.73;;;;;;;8.27;100.00;101369.52;1872723;76;26185;-76
2021/05/26 04:27:09;;;;;;;3.80;2.30;;;;;;;8.37;100.00;101376.61;1872774;76;26193;-76
2021/05/26 04:29:39;;;;;;;5.17;2.33;;;;;;;8.47;100.00;101377.55;1872709;76;26652;-76
2021/05/26 04:32:09;;;;;;;4.63;2.60;;;;;;;8.55;100.00;101375.73;1872711;76;26251;-76
2021/05/26 04:34:38;;;;;;;4.10;2.60;;;;;;;8.65;100.00;101375.84;1872700;76;26608;-74
2021/05/26 04:37:08;;;;;;;6.20;3.03;;;;;;;8.72;100.00;101373.42;1872620;76;26282;-74
2021/05/26 04:39:38;;;;;;;5.13;2.30;;;;;;;8.67;100.00;101376.97;1872758;76;26631;-75
2021/05/26 04:42:08;;;;;;;4.97;2.70;;;;;;;8.71;100.00;101378.12;1872939;76;26201;-75
2021/05/26 04:44:38;;;;;;;4.23;2.50;;;;;;;8.83;100.00;101381.57;1872805;76;26196;-76
2021/05/26 04:47:08;;;;;;;5.07;2.80;;;;;;;8.88;100.00;101381.63;1872714;76;26227;-76
2021/05/26 04:49:37;;;;;;;5.93;3.10;;;;;;;8.94;100.00;101383.92;1872841;76;26639;-74
2021/05/26 04:52:07;;;;;;;5.47;2.93;;;;;;;8.97;100.00;101380.61;1872912;76;26229;-75
2021/05/26 04:54:37;;;;;;;4.00;2.53;;;;;;;9.04;100.00;101386.22;1872804;76;26197;-76
2021/05/26 04:57:08;;;;;;;5.40;3.10;;;;;;;9.01;100.00;101384.53;1872663;76;26259;-74
2021/05/26 04:59:37;;;;;;;4.87;2.47;;;;;;;8.99;100.00;101372.31;1872732;76;26185;-76
2021/05/26 05:02:07;;;;;;;4.93;2.93;;;;;;;9.05;100.00;101382.36;1872791;76;26259;-75
2021/05/26 05:04:37;;;;;;;7.20;3.30;;;;;;;9.07;100.00;101378.77;1872840;76;26236;-76
2021/05/26 05:07:07;;;;;;;4.33;3.13;;;;;;;9.10;100.00;101378.80;1872648;76;26294;-76
2021/05/26 05:09:37;;;;;;;6.53;2.77;;;;;;;9.14;100.00;101385.49;1872720;76;26242;-76
2021/05/26 05:12:08;;;;;;;4.57;3.10;;;;;;;9.19;100.00;101381.94;1872530;76;26282;-76
2021/05/26 05:14:38;;;;;;;5.90;2.90;;;;;;;9.22;100.00;101382.24;1868146;77;26627;-74
2021/05/26 05:17:08;;;;;;;6.13;2.90;;;;;;;9.20;100.00;101389.97;1868347;77;26201;-76
2021/05/26 05:19:38;;;;;;;4.43;2.80;;;;;;;9.20;100.00;101388.58;1868232;77;26228;-74
2021/05/26 05:22:08;;;;;;;4.67;2.90;;;;;;;9.27;100.00;101389.77;1868249;77;26607;-76
2021/05/26 05:24:37;;;;;;;4.00;2.50;;;;;;;9.33;100.00;101383.16;1868115;77;26599;-76
2021/05/26 05:27:08;;;;;;;7.60;3.30;;;;;;;9.36;100.00;101386.25;1868173;77;26205;-74
2021/05/26 05:29:37;;;;;;;4.20;3.17;;;;;;;9.41;100.00;101394.59;1868208;77;26690;-76
2021/05/26 05:32:09;;;;;;;6.53;3.50;;;;;;;9.39;100.00;101394.59;1868302;77;26193;-76
2021/05/26 05:34:39;;;;;;;5.53;3.20;;;;;;;9.41;100.00;101400.72;1868257;77;26204;-74
2021/05/26 05:37:10;;;;;;;4.60;2.90;;;;;;;9.40;100.00;101401.81;1868166;77;26209;-74
2021/05/26 05:39:39;;;;;;;3.87;3.20;;;;;;;9.41;100.00;101400.72;1868151;77;26703;-74
2021/05/26 05:42:09;;;;;;;4.57;3.33;;;;;;;9.44;100.00;101404.34;1868158;77;26191;-75
2021/05/26 05:44:39;;;;;;;5.97;3.37;;;;;;;9.47;100.00;101405.19;1868124;77;26201;-76
2021/05/26 05:47:09;;;;;;;4.23;2.87;;;;;;;9.47;100.00;101410.19;1868143;77;26294;-75
2021/05/26 05:49:39;;;;;;;6.50;3.40;;;;;;;9.53;100.00;101408.30;1868123;76;26259;-75
2021/05/26 05:52:11;;;;;;;5.80;2.97;;;;;;;9.59;100.00;101410.00;1868319;77;26193;-75
2021/05/26 05:54:41;;;;;;;3.43;2.90;;;;;;;9.66;100.00;101412.02;1868345;77;26270;-77
2021/05/26 05:57:11;;;;;;;4.30;3.07;;;;;;;9.69;100.00;101414.25;1868132;77;26208;-75
2021/05/26 05:59:40;;;;;;;4.63;3.00;;;;;;;9.80;100.00;101410.44;1868171;77;26667;-75
2021/05/26 06:02:10;;;;;;;5.17;3.17;;;;;;;9.86;100.00;101414.09;1868193;77;26193;-77
2021/05/26 06:04:40;;;;;;;5.33;3.03;;;;;;;9.90;100.00;101425.78;1868288;77;26189;-75
2021/05/26 06:07:10;;;;;;;4.47;3.47;;;;;;;9.95;100.00;101425.82;1868134;77;26689;-76
2021/05/26 06:09:39;;;;;;;6.67;3.10;;;;;;;10.04;100.00;101423.38;1868148;77;26196;-75
2021/05/26 06:12:10;;;;;;;5.37;2.87;;;;;;;10.08;100.00;101425.06;1868247;77;26247;-77
2021/05/26 06:14:39;;;;;;;6.13;3.13;;;;;;;10.11;100.00;101432.30;1871334;77;26702;-78
2021/05/26 06:17:09;;;;;;;4.33;2.80;;;;;;;10.18;100.00;101430.17;1872163;77;26258;-77
2021/05/26 06:19:39;;;;;;;5.70;2.90;;;;;;;10.20;100.00;101426.56;1872118;76;26336;-77
2021/05/26 06:22:09;;;;;;;5.07;3.37;;;;;;;10.25;100.00;101429.92;1872244;76;26177;-77
2021/05/26 06:24:39;;;;;;;5.50;3.37;;;;;;;10.27;100.00;101426.34;1872267;76;26297;-76
2021/05/26 06:27:09;;;;;;;4.53;3.00;;;;;;;10.23;100.00;101429.34;1872246;77;26694;-78
2021/05/26 06:29:39;;;;;;;6.80;2.93;;;;;;;10.22;100.00;101431.31;1872643;76;26667;-76
2021/05/26 06:32:09;;;;;;;5.60;2.60;;;;;;;10.23;100.00;101423.23;1872163;76;26802;-77
2021/05/26 06:34:39;;;;;;;3.77;2.63;;;;;;;10.23;100.00;101425.17;1872249;76;26252;-77
2021/05/26 06:37:09;;;;;;;3.80;2.67;;;;;;;10.23;100.00;101420.46;1872287;77;26251;-77
2021/05/26 06:39:39;;;;;;;6.53;2.87;;;;;;;10.26;100.00;101419.11;1872190;76;26666;-77
2021/05/26 06:42:08;;;;;;;4.50;2.90;;;;;;;10.29;100.00;101422.17;1872282;77;26204;-75
2021/05/26 06:44:38;;;;;;;6.13;2.80;;;;;;;10.30;100.00;101423.85;1872256;77;26204;-76
2021/05/26 06:47:08;;;;;;;4.97;2.93;;;;;;;10.37;100.00;101418.04;1872183;76;26200;-75
2021/05/26 06:49:39;;;;;;;2.87;2.47;;;;;;;10.44;100.00;101426.41;1872191;76;26282;-77
2021/05/26 06:52:08;;;;;;;6.10;2.97;;;;;;;10.47;100.00;101425.88;1872105;76;26173;-80
2021/05/26 06:54:38;;;;;;;4.80;2.43;;;;;;;10.56;100.00;101424.81;1872217;77;26262;-77
2021/05/26 06:57:09;;;;;;;4.23;2.33;;;;;;;10.68;100.00;101424.03;1872137;76;26289;-77
2021/05/26 06:59:38;;;;;;;5.83;2.70;;;;;;;10.83;100.00;101421.84;1872052;76;26197;-76
2021/05/26 07:02:09;;;;;;;6.00;2.70;;;;;;;11.02;100.00;101423.02;1872159;77;26244;-77
2021/05/26 07:04:39;;;;;;;3.50;2.40;;;;;;;11.21;100.00;101427.52;1872172;76;26286;-78
2021/05/26 07:07:09;;;;;;;5.67;2.73;;;;;;;11.25;100.00;101422.48;1872229;77;26278;-73
2021/05/26 07:09:38;;;;;;;5.00;2.70;;;;;;;11.34;100.00;101418.61;1872215;77;26188;-71
2021/05/26 07:12:09;;;;;;;4.27;2.40;;;;;;;11.41;100.00;101423.36;1872131;76;26255;-75
2021/05/26 07:14:39;;;;;;;3.77;2.50;;;;;;;11.45;100.00;101435.61;1873307;76;26240;-79
2021/05/26 07:17:09;;;;;;;6.67;3.03;;;;;;;11.33;100.00;101426.70;1874513;76;26700;-76
2021/05/26 07:19:39;;;;;;;5.97;2.60;;;;;;;11.24;100.00;101425.56;1874471;76;26337;-75
2021/05/26 07:22:09;;;;;;;2.57;2.07;;;;;;;11.30;100.00;101430.01;1874517;76;26192;-75
2021/05/26 07:24:39;;;;;;;3.30;2.10;;;;;;;11.36;100.00;101428.36;1874625;76;26191;-76
2021/05/26 07:27:09;;;;;;;5.53;2.33;;;;;;;11.43;100.00;101436.42;1874514;76;26271;-76
2021/05/26 07:29:39;;;;;;;4.50;2.57;;;;;;;11.41;100.00;101433.10;1874500;76;26189;-75
2021/05/26 07:32:09;;;;;;;3.47;2.20;;;;;;;11.65;100.00;101431.98;1874638;76;26184;-74
2021/05/26 07:34:38;;;;;;;4.17;2.33;;;;;;;11.56;100.00;101424.75;1874715;76;26668;-76
2021/05/26 07:37:08;;;;;;;4.47;2.47;;;;;;;11.61;100.00;101426.70;1874613;76;26258;-75
2021/05/26 07:39:38;;;;;;;5.53;2.67;;;;;;;11.65;100.00;101427.81;1874563;76;26687;-73
2021/05/26 07:42:12;;;;;;;2.90;2.43;;;;;;;11.82;100.00;101427.00;1874681;76;26225;-72
2021/05/26 07:44:42;;;;;;;3.80;2.10;;;;;;;12.05;100.00;101422.81;1874772;76;26684;-74
2021/05/26 07:47:12;;;;;;;3.67;2.10;;;;;;;11.99;100.00;101423.36;1874585;76;26197;-71
2021/05/26 07:49:42;;;;;;;6.60;2.17;;;;;;;11.95;100.00;101428.38;1874601;76;26310;-71
2021/05/26 07:52:18;;;;;;;4.50;2.47;;;;;;;11.89;100.00;101428.12;1874659;76;26318;-74
2021/05/26 07:54:43;;;;;;;2.27;1.87;;;;;;;11.91;100.00;101426.72;1874168;76;26290;-71
2021/05/26 07:57:13;;;;;;;4.10;2.17;;;;;;;12.15;100.00;101419.43;1874609;76;26178;-74
2021/05/26 07:59:44;;;;;;;4.33;2.00;;;;;;;12.27;100.00;101419.14;1874597;76;26203;-74
2021/05/26 08:02:15;;;;;;;3.20;1.90;;;;;;;12.46;100.00;101423.53;1874682;76;26209;-72
2021/05/26 08:04:45;;;;;;;2.83;1.70;;;;;;;12.41;100.00;101424.96;1874623;76;26221;-74
2021/05/26 08:07:15;;;;;;;3.30;2.00;;;;;;;12.48;100.00;101420.75;1874590;76;26697;-71
2021/05/26 08:09:45;;;;;;;4.07;2.43;;;;;;;12.70;100.00;101427.36;1874676;76;26794;-71
2021/05/26 08:12:15;;;;;;;4.67;2.13;;;;;;;12.61;100.00;101425.72;1874671;76;26217;-74
2021/05/26 08:14:44;;;;;;;2.83;1.93;;;;;;;12.64;100.00;101432.66;1873988;76;26398;-71
2021/05/26 08:17:14;;;;;;;4.03;2.37;;;;;;;12.75;100.00;101428.14;1872119;76;26189;-74
2021/05/26 08:19:44;;;;;;;2.40;2.00;;;;;;;12.75;100.00;101432.88;1872108;77;26229;-72
2021/05/26 08:22:14;;;;;;;4.47;1.90;;;;;;;12.82;100.00;101427.02;1872227;76;26191;-74
2021/05/26 08:24:44;;;;;;;3.70;2.23;;;;;;;12.92;100.00;101423.59;1872239;77;26204;-74
2021/05/26 08:27:14;;;;;;;4.10;2.00;;;;;;;12.97;100.00;101426.92;1872292;76;26611;-73
2021/05/26 08:29:43;;;;;;;4.07;2.03;;;;;;;13.29;100.00;101427.89;1872359;76;26270;-73
2021/05/26 08:32:13;;;;;;;2.90;1.90;;;;;;;13.48;100.00;101421.88;1872213;76;26649;-73
2021/05/26 08:34:43;;;;;;;3.93;2.50;;;;;;;13.32;100.00;101428.14;1872289;76;26306;-72
2021/05/26 08:37:13;;;;;;;3.33;2.07;;;;;;;13.20;100.00;101425.72;1872236;76;26241;-72
2021/05/26 08:39:43;;;;;;;3.87;1.97;;;;;;;13.24;100.00;101430.15;1872147;76;26184;-72
2021/05/26 08:42:13;;;;;;;2.10;1.73;;;;;;;13.16;100.00;101424.63;1872392;76;26753;-72
2021/05/26 08:44:43;;;;;;;4.70;2.10;;;;;;;13.25;100.00;101425.41;1872158;77;26250;-74
2021/05/26 08:47:17;;;;;;;4.30;2.40;;;;;;;13.26;100.00;101415.92;1872127;76;26275;-74
2021/05/26 08:49:49;;;;;;;3.20;2.00;;;;;;;13.50;100.00;101419.08;1872163;76;26719;-72
2021/05/26 08:52:20;;;;;;;2.60;1.93;;;;;;;13.88;100.00;101424.90;1872166;77;26689;-74
2021/05/26 08:54:50;;;;;;;5.67;2.20;;;;;;;13.87;100.00;101424.62;1872190;76;26260;-75
2021/05/26 08:57:19;;;;;;;5.50;2.10;;;;;;;13.74;100.00;101421.11;1872289;76;26184;-72
2021/05/26 08:59:49;;;;;;;3.80;1.90;;;;;;;13.73;100.00;101422.26;1872200;77;26208;-74
2021/05/26 09:02:20;;;;;;;2.47;1.80;;;;;;;13.76;100.00;101423.06;1872215;76;26172;-75
2021/05/26 09:04:50;;;;;;;1.63;1.50;;;;;;;13.78;100.00;101423.02;1872332;76;26299;-73
2021/05/26 09:07:22;;;;;;;2.37;1.77;;;;;;;13.89;100.00;101421.83;1872339;77;26197;-74
2021/05/26 09:09:58;;;;;;;2.60;1.60;;;;;;;14.11;100.00;101411.00;1872271;76;26184;-76
2021/05/26 09:12:33;;;;;;;2.10;1.43;;;;;;;13.93;100.00;101414.52;1872251;76;26184;-73
2021/05/26 09:15:07;;;;;;;2.10;1.27;;;;;;;14.25;100.00;101406.91;1872481;76;26739;-73
2021/05/26 09:17:38;;;;;;;2.47;1.50;;;;;;;14.67;100.00;101399.76;1877737;76;26221;-73
2021/05/26 09:20:23;;;;;;;2.37;1.60;;;;;;;14.91;100.00;101407.53;1877621;76;26309;-76
2021/05/26 09:23:06;;;;;;;2.43;1.43;;;;;;;14.85;100.00;101402.56;1877707;76;26723;-75
2021/05/26 09:25:39;;;;;;;2.00;1.27;;;;;;;14.75;100.00;101408.88;1877677;76;26361;-76
2021/05/26 09:28:27;;;;;;;1.70;1.50;;;;;;;14.69;100.00;101405.30;1877855;76;26210;-76
2021/05/26 09:31:03;;;;;;;1.90;1.50;;;;;;;14.54;100.00;101411.94;1877653;76;26248;-74
2021/05/26 09:33:40;;;;;;;2.33;1.33;;;;;;;14.75;100.00;101407.48;1877609;76;26612;-76
2021/05/26 09:36:19;;;;;;;2.47;1.40;;;;;;;15.03;100.00;101410.16;1877586;76;26706;-76
2021/05/26 09:38:52;;;;;;;3.50;1.50;;;;;;;14.98;100.00;101400.42;1877681;76;26766;-76
2021/05/26 09:41:25;;;;;;;1.67;1.20;;;;;;;15.21;100.00;101402.06;1877558;76;26247;-76
2021/05/26 09:43:56;;;;;;;2.60;1.40;;;;;;;15.04;100.00;101408.19;1877801;76;26684;-74
2021/05/26 09:46:30;;;;;;;1.83;1.30;;;;;;;14.57;100.00;101407.14;1877611;76;26325;-74
2021/05/26 09:49:13;;;;;;;1.53;1.00;;;;;;;14.56;100.00;101410.22;1877730;76;26212;-74
2021/05/26 09:51:45;;;;;;;1.67;1.20;;;;;;;14.40;100.00;101409.58;1877579;76;26679;-73
2021/05/26 09:54:18;;;;;;;1.60;1.20;;;;;;;14.37;100.00;101413.54;1877658;76;26424;-73
2021/05/26 09:56:51;;;;;;;2.83;1.10;;;;;;;14.44;100.00;101410.65;1877733;76;26330;-73
2021/05/26 09:59:22;;;;;;;1.73;0.90;;;;;;;14.67;100.00;101408.14;1877581;76;26196;-76
2021/05/26 10:01:54;;;;;;;1.30;1.20;;;;;;;15.07;100.00;101413.17;1877678;76;26339;-73
2021/05/26 10:04:25;;;;;;;2.93;1.00;;;;;;;15.04;100.00;101403.99;1877630;76;26188;-73
2021/05/26 10:06:57;;;;;;;1.10;1.00;;;;;;;15.32;100.00;101410.00;1877695;76;26237;-76
2021/05/26 10:09:26;;;;;;;2.97;0.90;;;;;;;15.18;100.00;101413.88;1877697;76;26284;-76
2021/05/26 10:11:58;;;;;;;2.13;1.30;;;;;;;15.16;100.00;101414.73;1877576;76;26232;-73
2021/05/26 10:14:30;;;;;;;1.87;1.00;;;;;;;14.96;100.00;101414.47;1877577;76;26255;-76
2021/05/26 10:17:02;;;;;;;1.90;0.97;;;;;;;14.99;100.00;101415.25;1877546;76;26740;-75
2021/05/26 10:19:32;;;;;;;2.67;0.90;;;;;;;14.88;100.00;101415.98;1877536;76;26248;-75
2021/05/26 10:22:02;;;;;;;2.07;1.03;;;;;;;14.85;100.00;101426.91;1877577;76;26178;-74
2021/05/26 10:24:32;;;;;;;1.50;0.90;;;;;;;14.84;100.00;101421.91;1877840;76;26619;-72
2021/05/26 10:27:02;;;;;;;6.97;1.30;;;;;;;14.79;100.00;101419.73;1877676;76;26258;-73
2021/05/26 10:29:47;;;;;;;2.50;1.03;;;;;;;14.94;100.00;101420.34;1877718;76;26233;-74
2021/05/26 10:32:29;;;;;;;2.87;0.70;;;;;;;15.37;100.00;101419.72;1877596;76;26742;-75
2021/05/26 10:35:08;;;;;;;1.53;0.90;;;;;;;15.65;100.00;101416.52;1877662;76;26232;-76
2021/05/26 10:37:41;;;;;;;3.57;0.90;;;;;;;15.64;100.00;101420.45;1877571;76;26264;-75
2021/05/26 10:40:43;;;;;;;2.23;0.80;;;;;;;15.67;100.00;101419.00;1877637;76;26675;-75
2021/05/26 10:43:32;;;;;;;1.43;0.93;;;;;;;15.39;100.00;101425.86;1877690;76;26750;-76
2021/05/26 10:46:04;;;;;;;3.30;0.90;;;;;;;15.15;100.00;101427.88;1877625;76;26309;-76
2021/05/26 10:48:57;;;;;;;1.63;0.87;;;;;;;15.21;100.00;101437.05;1877730;76;26232;-76
2021/05/26 10:52:10;;;;;;;4.53;0.97;;;;;;;15.21;100.00;101439.28;1870781;76;26659;-73
2021/05/26 10:55:06;;;;;;;3.70;1.10;;;;;;;15.18;100.00;101430.10;1877554;76;26298;-73
2021/05/26 10:58:17;;;;;;;2.93;1.17;;;;;;;15.19;100.00;101435.94;1877659;76;26217;-76
2021/05/26 11:00:49;;;;;;;1.70;0.80;;;;;;;15.52;100.00;101424.86;1877603;76;26356;-76
2021/05/26 11:03:47;;;;;;;1.23;0.80;;;;;;;15.76;100.00;101426.41;1877537;76;26796;-76
2021/05/26 11:06:40;;;;;;;1.13;0.90;;;;;;;15.57;100.00;101436.82;1877601;76;26272;-74
2021/05/26 11:09:11;;;;;;;2.50;1.10;;;;;;;15.51;100.00;101431.02;1870657;76;26184;-73
2021/05/26 11:11:52;;;;;;;4.43;1.00;;;;;;;15.42;100.00;101434.21;1877554;76;26238;-76
2021/05/26 11:14:36;;;;;;;1.30;0.70;;;;;;;15.50;100.00;101434.95;1877631;76;26228;-76
2021/05/26 11:17:31;;;;;;;1.77;0.90;;;;;;;15.45;100.00;101438.62;1875618;76;26252;-75
2021/05/26 11:20:29;;;;;;;0.60;0.60;;;;;;;15.56;100.00;101429.55;1872120;76;26247;-76
2021/05/26 11:23:02;;;;;;;1.67;0.80;;;;;;;16.06;100.00;101426.44;1872126;76;26192;-73
2021/05/26 11:25:32;;;;;;;2.40;0.70;;;;;;;15.88;100.00;101425.91;1869999;76;26302;-76
2021/05/26 11:28:01;;;;;;;1.60;0.80;;;;;;;15.69;100.00;101428.77;1872129;77;26203;-74
2021/05/26 11:30:32;;;;;;;1.37;1.00;;;;;;;15.61;100.00;101433.67;1872064;76;26247;-73
2021/05/26 11:33:10;;;;;;;2.07;0.80;;;;;;;15.56;100.00;101425.91;1828240;78;26337;-76
2021/05/26 11:35:50;;;;;;;1.30;0.70;;;;;;;15.37;100.00;101439.31;1872073;77;26749;-74
2021/05/26 11:38:25;;;;;;;2.53;1.03;;;;;;;15.20;100.00;101438.17;1872082;76;26230;-74
2021/05/26 11:40:56;;;;;;;2.90;1.00;;;;;;;15.14;100.00;101436.61;1872040;76;26204;-76
2021/05/26 11:43:27;;;;;;;1.27;0.80;;;;;;;15.20;100.00;101433.98;1872093;76;26408;-74
2021/05/26 11:46:08;;;;;;;2.67;0.70;;;;;;;15.29;100.00;101433.56;1871929;76;26795;-74